Time;durP1;ratioP1;P1;durP2;ratioP2;P2;SDS_P1;SDS_P2;PMS_P1;PMS_P2;Temp;Humidity;BMP_temperature;BMP_pressure;BME280_temperature;BME280_humidity;BME280_pressure;Samples;Min_cycle;Max_cycle;Signal;HPM_P1;HPM_P2
2022/10/06 00:00:48;;;;;;;5.93;1.23;;;14.50;99.90;;;;;;5013770;28;20207;-52
2022/10/06 00:03:15;;;;;;;5.27;1.07;;;14.50;99.90;;;;;;5027951;28;20299;-52
2022/10/06 00:05:42;;;;;;;7.10;1.20;;;14.50;1.00;;;;;;5022781;28;20208;-52
2022/10/06 00:08:10;;;;;;;8.30;1.23;;;14.40;99.90;;;;;;5026642;28;20207;-52
2022/10/06 00:10:38;;;;;;;6.47;1.00;;;14.40;1.00;;;;;;5017506;28;20211;-51
2022/10/06 00:13:05;;;;;;;5.77;1.40;;;14.40;1.00;;;;;;5030962;28;20210;-52
2022/10/06 00:15:33;;;;;;;4.63;0.90;;;14.40;1.00;;;;;;5015744;28;20285;-51
2022/10/06 00:18:00;;;;;;;6.73;1.53;;;14.30;1.00;;;;;;5019990;28;20217;-52
2022/10/06 00:20:28;;;;;;;7.00;1.57;;;14.20;1.00;;;;;;5015653;28;20200;-52
2022/10/06 00:22:55;;;;;;;6.93;1.17;;;14.20;1.00;;;;;;5030906;28;20679;-52
2022/10/06 00:25:24;;;;;;;5.57;1.10;;;14.20;1.00;;;;;;5030281;28;20209;-52
2022/10/06 00:27:51;;;;;;;8.37;1.37;;;14.20;1.00;;;;;;5020397;28;20289;-52
2022/10/06 00:30:24;;;;;;;7.67;1.53;;;14.20;1.00;;;;;;5024478;28;20650;-52
2022/10/06 00:32:57;;;;;;;4.57;1.10;;;14.20;1.00;;;;;;5028792;28;20194;-51
2022/10/06 00:35:26;;;;;;;6.83;1.20;;;14.10;1.00;;;;;;5026848;28;20204;-52
2022/10/06 00:37:54;;;;;;;4.03;1.40;;;14.00;99.90;;;;;;5013554;28;20211;-51
2022/10/06 00:40:21;;;;;;;4.27;1.13;;;14.10;99.90;;;;;;5015585;28;20210;-51
2022/10/06 00:42:51;;;;;;;9.83;1.50;;;14.10;99.90;;;;;;5027841;28;20556;-52
2022/10/06 00:45:41;;;;;;;7.47;1.53;;;14.10;99.90;;;;;;5028588;28;20581;-51
2022/10/06 00:48:24;;;;;;;8.97;1.60;;;14.00;99.90;;;;;;5018897;28;20210;-51
2022/10/06 00:50:54;;;;;;;5.03;1.63;;;14.10;99.90;;;;;;5024260;28;20229;-53
2022/10/06 00:53:22;;;;;;;7.97;1.47;;;14.00;99.90;;;;;;5023714;28;20204;-52
2022/10/06 00:55:49;;;;;;;7.07;1.30;;;14.10;1.00;;;;;;5026932;28;20210;-52
2022/10/06 00:58:16;;;;;;;6.03;1.20;;;13.90;1.00;;;;;;5017000;28;20303;-52
2022/10/06 01:00:44;;;;;;;5.00;1.50;;;13.90;99.90;;;;;;5025587;28;20648;-52
2022/10/06 01:03:17;;;;;;;5.73;1.00;;;13.90;99.90;;;;;;5021790;28;20299;-52
2022/10/06 01:05:49;;;;;;;7.20;1.00;;;13.80;99.90;;;;;;5028220;28;20345;-52
2022/10/06 01:08:16;;;;;;;4.17;0.87;;;13.90;76.20;;;;;;5025874;28;20224;-52
2022/10/06 01:10:43;;;;;;;6.97;1.27;;;13.90;99.90;;;;;;5021771;28;20213;-51
2022/10/06 01:13:12;;;;;;;6.27;1.10;;;13.90;1.90;;;;;;5022465;28;20213;-57
2022/10/06 01:15:49;;;;;;;6.70;1.40;;;13.90;1.00;;;;;;5018474;28;20198;-52
2022/10/06 01:18:19;;;;;;;7.40;1.37;;;13.90;1.00;;;;;;5020826;28;20192;-51
2022/10/06 01:20:58;;;;;;;5.27;1.20;;;13.90;1.00;;;;;;5018541;28;20203;-51
2022/10/06 01:23:26;;;;;;;4.97;1.00;;;13.80;90.00;;;;;;5018737;28;20205;-52
2022/10/06 01:25:53;;;;;;;5.97;1.10;;;13.80;99.90;;;;;;5022484;28;20202;-51
2022/10/06 01:28:20;;;;;;;7.20;1.60;;;13.90;99.90;;;;;;5017652;28;20572;-52
2022/10/06 01:30:51;;;;;;;7.33;1.60;;;13.80;99.90;;;;;;5019532;28;20213;-52
2022/10/06 01:33:19;;;;;;;12.43;1.77;;;13.80;99.90;;;;;;5020613;28;20202;-52
2022/10/06 01:35:49;;;;;;;6.53;1.43;;;13.80;99.70;;;;;;5014517;28;20667;-52
2022/10/06 01:38:17;;;;;;;7.17;1.40;;;13.80;99.90;;;;;;5023685;28;20224;-53
2022/10/06 01:40:45;;;;;;;9.33;1.20;;;13.80;99.90;;;;;;5032759;28;20240;-52
2022/10/06 01:43:11;;;;;;;4.80;1.00;;;13.90;99.90;;;;;;5024357;28;20210;-53
2022/10/06 01:45:38;;;;;;;8.20;1.40;;;13.80;99.90;;;;;;5015126;28;20704;-53
2022/10/06 01:48:05;;;;;;;5.03;1.23;;;13.80;1.00;;;;;;5023395;28;20666;-52
2022/10/06 01:50:32;;;;;;;5.67;1.30;;;13.70;1.00;;;;;;5025458;28;20693;-52
2022/10/06 01:52:59;;;;;;;5.27;1.13;;;13.70;1.00;;;;;;5022245;28;20696;-50
2022/10/06 01:55:26;;;;;;;6.53;1.50;;;13.60;1.00;;;;;;5018664;28;20204;-52
2022/10/06 01:57:53;;;;;;;7.30;1.30;;;13.60;1.00;;;;;;5026184;28;20235;-52
2022/10/06 02:00:20;;;;;;;8.63;1.30;;;13.60;99.90;;;;;;5025159;28;20204;-51
2022/10/06 02:02:46;;;;;;;7.63;1.90;;;13.60;32.00;;;;;;5028085;28;20267;-52
2022/10/06 02:05:14;;;;;;;4.97;1.03;;;13.50;99.90;;;;;;5027036;28;20218;-51
2022/10/06 02:07:41;;;;;;;6.13;1.50;;;13.50;99.90;;;;;;5027605;28;20389;-51
2022/10/06 02:10:08;;;;;;;10.07;1.50;;;13.50;99.90;;;;;;5030161;28;20306;-51
2022/10/06 02:12:35;;;;;;;11.00;1.57;;;13.40;1.00;;;;;;5031688;28;20199;-51
2022/10/06 02:15:03;;;;;;;5.47;1.13;;;13.30;1.00;;;;;;5028964;28;20653;-52
2022/10/06 02:17:29;;;;;;;6.60;1.53;;;13.20;26.70;;;;;;5026066;28;20641;-56
2022/10/06 02:19:56;;;;;;;4.43;1.40;;;13.30;1.00;;;;;;5027661;28;20206;-51
2022/10/06 02:22:23;;;;;;;8.07;1.43;;;13.30;64.10;;;;;;5024525;28;20597;-52
2022/10/06 02:24:50;;;;;;;6.20;1.00;;;13.30;1.00;;;;;;5030824;28;20202;-52
2022/10/06 02:27:16;;;;;;;7.80;1.17;;;13.30;1.00;;;;;;5028453;28;20207;-53
2022/10/06 02:29:44;;;;;;;6.80;1.50;;;13.30;1.00;;;;;;5029226;28;20210;-52
2022/10/06 02:32:10;;;;;;;7.83;1.33;;;13.30;1.00;;;;;;5031739;28;20667;-52
2022/10/06 02:34:37;;;;;;;5.33;1.30;;;13.20;1.00;;;;;;5027319;28;20196;-53
2022/10/06 02:37:04;;;;;;;4.67;1.10;;;13.10;1.00;;;;;;5030921;28;20197;-52
2022/10/06 02:39:30;;;;;;;9.17;1.43;;;13.00;1.00;;;;;;5017709;28;20284;-53
2022/10/06 02:41:57;;;;;;;7.73;1.33;;;13.10;1.00;;;;;;5021615;28;20190;-52
2022/10/06 02:44:24;;;;;;;9.60;1.80;;;12.90;1.00;;;;;;5017502;28;20676;-51
2022/10/06 02:46:52;;;;;;;7.70;1.40;;;12.90;1.00;;;;;;5016508;28;20205;-52
2022/10/06 02:49:19;;;;;;;8.70;1.80;;;13.00;1.00;;;;;;5019252;28;20209;-52
2022/10/06 02:51:46;;;;;;;5.77;1.40;;;12.80;1.00;;;;;;5014736;28;20202;-53
2022/10/06 02:54:13;;;;;;;6.57;1.23;;;12.90;1.00;;;;;;5019114;28;20207;-53
2022/10/06 02:56:40;;;;;;;6.70;1.20;;;12.80;1.00;;;;;;5016418;28;20251;-52
2022/10/06 02:59:07;;;;;;;8.77;3.07;;;12.90;1.00;;;;;;5017609;28;20568;-53
2022/10/06 03:01:34;;;;;;;12.17;3.00;;;12.90;1.00;;;;;;5018317;28;20600;-54
2022/10/06 03:04:01;;;;;;;10.67;1.27;;;12.90;1.00;;;;;;5020658;28;20237;-52
2022/10/06 03:06:29;;;;;;;6.43;1.37;;;12.80;1.00;;;;;;5018335;28;20201;-53
2022/10/06 03:09:02;;;;;;;5.20;1.10;;;12.70;1.00;;;;;;5017653;28;20204;-53
2022/10/06 03:11:31;;;;;;;7.37;1.80;;;12.80;1.00;;;;;;5020436;28;20559;-52
2022/10/06 03:13:58;;;;;;;9.50;1.30;;;12.70;1.00;;;;;;5017118;28;20197;-53
2022/10/06 03:16:28;;;;;;;5.57;1.10;;;12.70;1.00;;;;;;5019527;28;20207;-53
2022/10/06 03:18:56;;;;;;;9.83;1.57;;;12.70;99.90;;;;;;5016410;28;20215;-53
2022/10/06 03:21:29;;;;;;;6.63;1.50;;;12.70;99.90;;;;;;5015063;28;20218;-52
2022/10/06 03:23:57;;;;;;;5.97;1.33;;;12.60;99.90;;;;;;5017904;28;20203;-52
2022/10/06 03:26:29;;;;;;;8.23;1.43;;;12.60;1.00;;;;;;5018916;28;20195;-52
2022/10/06 03:28:56;;;;;;;4.10;1.03;;;12.60;99.90;;;;;;5020591;28;21685;-53
2022/10/06 03:31:24;;;;;;;7.53;1.40;;;12.60;1.00;;;;;;5011805;28;20224;-53
2022/10/06 03:33:53;;;;;;;8.00;1.63;;;12.60;1.00;;;;;;5024617;28;20583;-53
2022/10/06 03:36:21;;;;;;;6.17;1.40;;;12.60;99.90;;;;;;5016334;28;20567;-52
2022/10/06 03:38:48;;;;;;;6.87;1.30;;;12.60;99.90;;;;;;5017313;28;20703;-52
2022/10/06 03:41:16;;;;;;;4.50;1.10;;;12.50;1.00;;;;;;5011658;28;20203;-52
2022/10/06 03:43:45;;;;;;;12.47;1.60;;;12.50;99.90;;;;;;5014247;28;20214;-53
2022/10/06 03:46:18;;;;;;;8.60;1.57;;;12.40;1.00;;;;;;5015719;28;20340;-52
2022/10/06 03:48:46;;;;;;;9.93;1.47;;;12.40;1.00;;;;;;5019410;28;20205;-51
2022/10/06 03:51:26;;;;;;;8.07;1.23;;;12.40;1.00;;;;;;5016832;28;20217;-52
2022/10/06 03:53:52;;;;;;;7.10;1.50;;;12.40;99.90;;;;;;5022837;28;20205;-52
2022/10/06 03:56:31;;;;;;;6.17;1.23;;;12.40;1.00;;;;;;5018370;28;20208;-52
2022/10/06 03:59:00;;;;;;;7.83;1.37;;;12.30;1.00;;;;;;5020615;28;20287;-53
2022/10/06 04:01:32;;;;;;;7.67;1.70;;;12.30;99.90;;;;;;5014993;28;20221;-52
2022/10/06 04:04:00;;;;;;;9.33;1.37;;;12.30;99.90;;;;;;5022252;28;20570;-51
2022/10/06 04:06:29;;;;;;;7.87;1.60;;;12.40;1.00;;;;;;5014800;28;20203;-53
2022/10/06 04:08:56;;;;;;;9.20;1.43;;;12.20;1.00;;;;;;5014672;28;20201;-52
2022/10/06 04:11:30;;;;;;;8.30;1.77;;;12.30;99.90;;;;;;5014079;28;20210;-53
2022/10/06 04:14:02;;;;;;;8.40;2.03;;;12.10;99.90;;;;;;5017293;28;20201;-52
2022/10/06 04:16:32;;;;;;;8.73;1.43;;;12.10;1.00;;;;;;5011745;28;20193;-52
2022/10/06 04:19:01;;;;;;;10.13;1.80;;;12.00;99.90;;;;;;5021715;28;20386;-53
2022/10/06 04:21:30;;;;;;;9.20;1.53;;;12.00;1.00;;;;;;5015179;28;20216;-52
2022/10/06 04:23:59;;;;;;;7.00;2.00;;;12.10;59.40;;;;;;5024292;28;20786;-52
2022/10/06 04:26:29;;;;;;;6.97;1.70;;;12.10;99.90;;;;;;5018787;28;20198;-53
2022/10/06 04:28:56;;;;;;;9.13;1.60;;;12.10;1.00;;;;;;5025142;28;20295;-52
2022/10/06 04:31:29;;;;;;;6.17;1.87;;;12.00;92.50;;;;;;5010361;28;20212;-52
2022/10/06 04:33:58;;;;;;;6.10;1.17;;;11.90;21.80;;;;;;5020737;28;20295;-52
2022/10/06 04:36:31;;;;;;;9.77;1.50;;;12.00;1.00;;;;;;5021932;28;20204;-51
2022/10/06 04:39:01;;;;;;;8.63;2.60;;;12.00;1.00;;;;;;5028664;28;20212;-54
2022/10/06 04:41:31;;;;;;;11.40;2.60;;;12.00;1.00;;;;;;5023687;28;20308;-53
2022/10/06 04:43:58;;;;;;;8.67;1.37;;;12.00;1.00;;;;;;5028897;28;20214;-53
2022/10/06 04:46:26;;;;;;;11.53;2.23;;;12.00;1.00;;;;;;5025299;28;20306;-53
2022/10/06 04:49:11;;;;;;;4.33;1.57;;;12.00;99.90;;;;;;5027345;28;20300;-52
2022/10/06 04:51:45;;;;;;;8.10;1.77;;;11.90;1.00;;;;;;5023406;28;20303;-53
2022/10/06 04:54:13;;;;;;;6.20;1.30;;;11.90;1.00;;;;;;5024905;28;20209;-53
2022/10/06 04:56:39;;;;;;;9.33;2.23;;;12.00;99.90;;;;;;5013553;28;20740;-53
2022/10/06 04:59:06;;;;;;;6.90;1.70;;;12.10;71.10;;;;;;5024088;28;20198;-53
2022/10/06 05:01:35;;;;;;;5.10;1.73;;;12.10;1.00;;;;;;5028627;28;20611;-53
2022/10/06 05:04:03;;;;;;;5.80;1.50;;;11.90;1.00;;;;;;5014897;28;20303;-52
2022/10/06 05:06:38;;;;;;;7.93;1.70;;;11.90;99.90;;;;;;5029371;28;20209;-53
2022/10/06 05:09:14;;;;;;;7.43;1.70;;;12.10;1.00;;;;;;5025747;28;20380;-53
2022/10/06 05:11:41;;;;;;;8.23;1.93;;;11.90;1.00;;;;;;5028946;28;20634;-52
2022/10/06 05:14:08;;;;;;;6.83;1.90;;;11.90;1.00;;;;;;5023253;28;20542;-52
2022/10/06 05:16:36;;;;;;;6.70;1.80;;;11.80;22.10;;;;;;5030732;28;20655;-52
2022/10/06 05:19:04;;;;;;;7.37;1.67;;;11.80;1.00;;;;;;5030523;28;20214;-53
2022/10/06 05:21:32;;;;;;;7.43;1.80;;;11.80;1.00;;;;;;5027945;28;20208;-52
2022/10/06 05:23:59;;;;;;;4.73;1.50;;;12.00;1.00;;;;;;5020001;28;20257;-52
2022/10/06 05:26:29;;;;;;;7.90;1.90;;;11.90;99.90;;;;;;5014349;28;20200;-53
2022/10/06 05:28:57;;;;;;;9.50;2.17;;;11.90;96.70;;;;;;5019869;28;20200;-51
2022/10/06 05:31:32;;;;;;;12.23;2.27;;;11.80;1.00;;;;;;5024781;28;20211;-52
2022/10/06 05:34:00;;;;;;;8.23;2.07;;;11.90;45.40;;;;;;5021558;28;20199;-52
2022/10/06 05:36:29;;;;;;;6.63;2.70;;;11.80;1.00;;;;;;5019780;28;20497;-51
2022/10/06 05:38:57;;;;;;;6.47;1.93;;;11.80;1.00;;;;;;4659580;28;10000448;-50
2022/10/06 05:41:27;;;;;;;9.53;1.90;;;11.80;1.00;;;;;;5009369;28;20717;-51
2022/10/06 05:43:54;;;;;;;8.70;2.13;;;11.90;99.90;;;;;;5013800;28;20210;-51
2022/10/06 05:46:27;;;;;;;7.83;1.70;;;11.90;99.90;;;;;;5010545;28;20294;-52
2022/10/06 05:48:59;;;;;;;8.03;2.00;;;11.90;99.90;;;;;;5012570;28;20204;-53
2022/10/06 05:51:28;;;;;;;13.87;2.80;;;11.70;1.00;;;;;;5014840;28;20207;-52
2022/10/06 05:53:58;;;;;;;12.77;2.57;;;11.70;1.00;;;;;;5015952;28;20217;-52
2022/10/06 05:56:30;;;;;;;7.53;2.73;;;11.80;1.00;;;;;;5010692;28;20195;-52
2022/10/06 05:58:58;;;;;;;9.57;2.20;;;11.80;99.90;;;;;;5024054;28;20208;-51
2022/10/06 06:01:30;;;;;;;7.73;2.03;;;11.70;99.90;;;;;;5013131;28;20233;-52
2022/10/06 06:04:01;;;;;;;8.87;3.03;;;11.70;1.00;;;;;;5015258;28;20299;-52
2022/10/06 06:06:33;;;;;;;10.50;2.20;;;11.50;1.00;;;;;;5012468;28;20291;-52
2022/10/06 06:09:09;;;;;;;9.43;1.97;;;11.60;99.90;;;;;;5016750;28;20211;-52
2022/10/06 06:11:38;;;;;;;8.37;2.33;;;11.60;99.90;;;;;;5015719;28;20305;-52
2022/10/06 06:14:08;;;;;;;12.17;2.50;;;11.50;1.00;;;;;;5016796;28;20195;-52
2022/10/06 06:16:37;;;;;;;9.40;2.00;;;11.60;1.00;;;;;;5017317;28;20655;-53
2022/10/06 06:19:06;;;;;;;9.03;2.90;;;11.40;99.90;;;;;;5021143;28;20226;-53
2022/10/06 06:21:33;;;;;;;12.17;2.20;;;11.60;1.00;;;;;;5012410;28;20210;-52
2022/10/06 06:24:01;;;;;;;12.97;2.40;;;11.50;1.00;;;;;;5019117;28;20258;-53
2022/10/06 06:26:31;;;;;;;17.33;3.43;;;11.50;98.80;;;;;;5011100;28;20674;-52
2022/10/06 06:29:02;;;;;;;8.27;2.40;;;11.40;99.90;;;;;;5014430;28;20199;-52
2022/10/06 06:31:38;;;;;;;11.53;2.23;;;11.40;1.00;;;;;;5009826;28;20216;-52
2022/10/06 06:34:05;;;;;;;11.23;2.20;;;11.40;1.00;;;;;;5007472;28;20787;-53
2022/10/06 06:36:39;;;;;;;11.20;2.40;;;11.50;99.90;;;;;;5008808;28;20199;-52
2022/10/06 06:39:11;;;;;;;13.13;2.70;;;11.50;1.00;;;;;;5010811;28;20539;-52
2022/10/06 06:41:45;;;;;;;9.40;2.80;;;11.40;1.00;;;;;;5012624;28;20224;-52
2022/10/06 06:44:13;;;;;;;16.37;2.70;;;11.40;1.00;;;;;;5011168;28;20767;-51
2022/10/06 06:46:42;;;;;;;11.33;2.20;;;11.60;99.90;;;;;;5010566;28;20625;-53
2022/10/06 06:49:10;;;;;;;7.73;3.50;;;11.70;99.90;;;;;;5010075;28;20660;-52
2022/10/06 06:51:43;;;;;;;14.17;3.40;;;11.70;1.00;;;;;;5009455;28;21614;-52
2022/10/06 06:54:11;;;;;;;11.23;2.50;;;11.80;1.00;;;;;;5012004;28;20207;-53
2022/10/06 06:56:39;;;;;;;10.97;2.23;;;11.80;1.00;;;;;;5009717;28;20250;-52
2022/10/06 06:59:09;;;;;;;11.80;2.43;;;12.00;99.90;;;;;;5018312;28;20221;-53
2022/10/06 07:01:37;;;;;;;11.30;3.00;;;12.00;1.00;;;;;;5009104;28;20226;-51
2022/10/06 07:04:05;;;;;;;13.77;2.73;;;12.10;1.00;;;;;;5012822;28;20210;-52
2022/10/06 07:06:32;;;;;;;11.23;2.20;;;12.10;1.00;;;;;;5019614;28;20302;-52
2022/10/06 07:08:59;;;;;;;11.40;2.37;;;12.20;41.40;;;;;;5014909;28;20655;-52
2022/10/06 07:11:29;;;;;;;11.03;2.33;;;12.40;1.00;;;;;;5022884;28;20237;-51
2022/10/06 07:14:00;;;;;;;11.87;2.43;;;12.30;1.00;;;;;;5018799;28;20202;-50
2022/10/06 07:25:06;;;;;;;9.47;2.73;;;12.50;1.00;;;;;;5017499;28;20559;-53
2022/10/06 07:27:44;;;;;;;9.43;2.20;;;12.60;1.00;;;;;;5022411;28;20200;-53
2022/10/06 07:30:18;;;;;;;11.87;2.50;;;12.60;99.90;;;;;;5014541;28;20206;-53
2022/10/06 07:32:46;;;;;;;9.17;1.73;;;12.60;1.00;;;;;;5012506;28;20222;-53
2022/10/06 07:35:13;;;;;;;11.30;2.20;;;12.70;1.00;;;;;;5012439;28;20220;-53
2022/10/06 07:37:39;;;;;;;13.77;3.20;;;12.80;1.00;;;;;;5011292;28;20197;-53
2022/10/06 07:40:07;;;;;;;5.70;1.57;;;12.90;99.90;;;;;;5012044;28;20207;-53
2022/10/06 07:42:47;;;;;;;10.90;2.17;;;13.00;99.90;;;;;;5010336;28;20568;-52
2022/10/06 07:48:01;;;;;;;9.90;2.37;;;13.10;1.00;;;;;;5016902;28;20679;-52
2022/10/06 07:50:28;;;;;;;6.37;1.93;;;13.20;1.00;;;;;;5014141;28;20205;-52
2022/10/06 07:52:54;;;;;;;16.40;2.73;;;13.30;1.00;;;;;;5016990;28;20236;-53
2022/10/06 07:55:21;;;;;;;7.77;2.20;;;13.30;1.00;;;;;;5013264;28;20198;-53
2022/10/06 07:57:50;;;;;;;9.23;2.03;;;13.40;1.00;;;;;;5014337;28;20582;-53
2022/10/06 08:00:21;;;;;;;6.63;1.80;;;13.60;99.90;;;;;;5016992;28;20194;-53
2022/10/06 08:02:48;;;;;;;11.80;1.90;;;13.70;1.00;;;;;;5018010;28;20635;-54
2022/10/06 08:05:15;;;;;;;10.20;2.00;;;14.20;1.00;;;;;;5017728;28;20203;-53
2022/10/06 08:07:42;;;;;;;8.60;1.90;;;14.00;1.00;;;;;;5016928;28;20195;-53
2022/10/06 08:10:09;;;;;;;10.13;2.33;;;14.40;86.40;;;;;;5013219;28;20689;-53
2022/10/06 08:12:36;;;;;;;8.43;2.23;;;14.70;1.00;;;;;;5013952;28;20212;-53
2022/10/06 08:15:07;;;;;;;14.10;2.27;;;14.80;1.00;;;;;;5016283;28;21259;-53
2022/10/06 08:17:35;;;;;;;10.37;1.83;;;14.70;1.00;;;;;;5011732;28;20294;-54
2022/10/06 08:20:07;;;;;;;9.17;2.27;;;14.80;1.00;;;;;;5016793;28;20598;-53
2022/10/06 08:22:35;;;;;;;9.20;1.93;;;15.20;1.00;;;;;;5014990;28;20294;-52
2022/10/06 08:25:02;;;;;;;7.63;1.90;;;15.30;99.90;;;;;;5012567;28;20203;-53
2022/10/06 08:27:35;;;;;;;8.40;1.90;;;15.50;99.90;;;;;;5026386;28;20634;-53
2022/10/06 08:30:04;;;;;;;5.50;1.70;;;15.50;99.90;;;;;;5017862;28;20296;-53
2022/10/06 08:32:31;;;;;;;14.60;2.57;;;15.70;21.10;;;;;;5013143;28;20211;-53
2022/10/06 08:34:58;;;;;;;9.40;1.87;;;15.70;99.90;;;;;;5015379;28;20291;-52
2022/10/06 08:37:26;;;;;;;7.47;1.70;;;16.10;44.40;;;;;;5013230;28;20298;-53
2022/10/06 08:39:54;;;;;;;9.47;2.07;;;15.80;1.00;;;;;;5014082;28;20278;-53
2022/10/06 08:42:38;;;;;;;10.47;1.90;;;15.80;27.60;;;;;;5014682;28;20298;-53
2022/10/06 08:45:14;;;;;;;5.33;1.47;;;15.90;1.00;;;;;;5011502;28;20203;-53
2022/10/06 08:47:59;;;;;;;10.37;1.70;;;15.80;1.00;;;;;;5019280;28;20199;-53
2022/10/06 08:50:29;;;;;;;9.53;1.80;;;15.90;1.00;;;;;;5014524;28;20296;-52
2022/10/06 08:53:15;;;;;;;8.30;1.70;;;15.80;1.00;;;;;;5014311;28;20262;-53
2022/10/06 08:55:50;;;;;;;10.63;1.80;;;15.60;1.00;;;;;;5014228;28;20203;-53
2022/10/06 08:58:17;;;;;;;9.27;1.63;;;16.00;1.00;;;;;;5018434;28;20271;-52
2022/10/06 09:00:44;;;;;;;7.00;1.23;;;16.20;1.00;;;;;;5014173;28;20205;-53
2022/10/06 09:03:22;;;;;;;6.73;1.37;;;16.20;1.00;;;;;;5018396;28;20238;-52
2022/10/06 09:05:53;;;;;;;5.20;1.40;;;16.10;1.00;;;;;;5013486;28;20211;-52
2022/10/06 09:08:46;;;;;;;3.93;1.67;;;15.90;1.00;;;;;;5017120;28;20212;-52
2022/10/06 09:11:21;;;;;;;9.27;1.80;;;16.30;1.00;;;;;;5014948;28;20737;-52
2022/10/06 09:13:59;;;;;;;13.10;2.77;;;16.00;1.00;;;;;;5013806;28;20624;-52
2022/10/06 09:16:32;;;;;;;9.77;1.40;;;15.90;1.00;;;;;;5012914;28;20701;-53
2022/10/06 09:19:25;;;;;;;5.60;1.57;;;16.00;1.00;;;;;;5018404;28;20196;-52
2022/10/06 09:22:01;;;;;;;8.70;1.90;;;15.90;1.00;;;;;;5016668;28;20210;-51
2022/10/06 09:24:44;;;;;;;8.73;1.50;;;16.00;1.00;;;;;;5011726;28;20208;-52
2022/10/06 09:27:36;;;;;;;7.93;1.40;;;16.40;1.00;;;;;;5010454;28;20572;-52
2022/10/06 09:30:05;;;;;;;7.20;1.57;;;16.10;1.00;;;;;;5012536;28;20202;-52
2022/10/06 09:32:33;;;;;;;9.07;1.80;;;15.90;1.00;;;;;;5016225;28;20228;-51
2022/10/06 09:35:01;;;;;;;6.93;1.93;;;15.90;1.00;;;;;;5013973;28;20658;-51
2022/10/06 09:37:28;;;;;;;8.90;1.97;;;15.70;1.00;;;;;;5009254;28;20224;-52
2022/10/06 09:39:55;;;;;;;8.80;1.30;;;15.80;35.80;;;;;;5011681;28;20214;-51
2022/10/06 09:42:26;;;;;;;8.87;1.83;;;15.90;1.00;;;;;;5016881;28;20207;-52
2022/10/06 09:45:00;;;;;;;5.73;1.60;;;16.10;1.00;;;;;;5016839;28;20218;-52
2022/10/06 09:47:39;;;;;;;8.90;1.57;;;16.20;1.00;;;;;;5018491;28;20227;-54
2022/10/06 09:50:15;;;;;;;6.33;1.30;;;16.20;1.00;;;;;;5014339;28;20622;-52
2022/10/06 09:52:59;;;;;;;5.97;1.33;;;16.20;1.00;;;;;;5018220;28;20210;-52
2022/10/06 09:55:32;;;;;;;5.67;1.77;;;16.10;1.00;;;;;;5013446;28;20294;-53
2022/10/06 09:58:00;;;;;;;6.73;1.73;;;16.30;1.00;;;;;;5013426;28;20227;-53
2022/10/06 10:00:34;;;;;;;6.70;1.80;;;16.30;1.00;;;;;;5011866;28;20281;-53
2022/10/06 10:03:03;;;;;;;6.77;1.67;;;16.30;1.00;;;;;;5010064;28;20207;-52
2022/10/06 10:05:32;;;;;;;8.17;1.30;;;16.20;1.00;;;;;;5014404;28;20209;-52
2022/10/06 10:08:01;;;;;;;6.50;1.37;;;16.40;1.00;;;;;;5020930;28;20213;-52
2022/10/06 10:10:29;;;;;;;8.80;1.43;;;16.70;1.00;;;;;;5014624;28;20212;-52
2022/10/06 10:12:58;;;;;;;11.57;1.83;;;16.70;1.00;;;;;;5017573;28;20215;-53
2022/10/06 10:15:25;;;;;;;9.10;1.83;;;16.80;1.00;;;;;;5015236;28;20285;-52
2022/10/06 10:17:55;;;;;;;9.23;1.43;;;16.60;1.00;;;;;;5009569;28;20660;-52
2022/10/06 10:20:38;;;;;;;6.83;2.30;;;16.40;1.00;;;;;;5014186;28;20225;-52
2022/10/06 10:23:17;;;;;;;6.23;1.30;;;16.30;1.00;;;;;;5012783;28;20207;-54
2022/10/06 10:25:54;;;;;;;9.47;2.00;;;16.10;1.00;;;;;;5036955;28;20207;-53
2022/10/06 10:29:15;;;;;;;6.37;1.50;;;16.30;1.00;;;;;;5020767;28;20213;-52
2022/10/06 10:32:01;;;;;;;4.13;1.30;;;16.50;1.00;;;;;;5018512;28;20716;-52
2022/10/06 10:34:45;;;;;;;8.67;2.20;;;16.50;1.00;;;;;;5017870;28;20214;-52
2022/10/06 10:37:23;;;;;;;7.30;1.97;;;16.30;1.00;;;;;;5001234;28;20203;-53
2022/10/06 10:39:57;;;;;;;9.47;4.07;;;16.40;1.00;;;;;;5003195;28;20563;-53
2022/10/06 10:42:39;;;;;;;10.77;2.27;;;16.60;1.00;;;;;;5019377;28;20211;-53
2022/10/06 10:45:16;;;;;;;9.50;3.10;;;16.40;1.00;;;;;;5014156;28;21159;-52
2022/10/06 10:47:45;;;;;;;5.67;1.40;;;16.30;1.00;;;;;;5018816;28;20211;-52
2022/10/06 10:50:46;;;;;;;5.60;1.10;;;16.40;1.00;;;;;;5000693;28;20228;-52
2022/10/06 10:53:28;;;;;;;5.53;1.27;;;16.30;1.00;;;;;;5020876;28;20760;-52
2022/10/06 10:55:56;;;;;;;4.30;1.17;;;16.20;1.00;;;;;;5018156;28;20250;-52
2022/10/06 10:58:26;;;;;;;4.40;1.33;;;16.10;1.00;;;;;;5017842;28;20259;-52
2022/10/06 11:00:58;;;;;;;7.17;1.60;;;16.40;1.00;;;;;;5013242;28;20207;-51
2022/10/06 11:03:25;;;;;;;4.23;1.60;;;16.60;99.90;;;;;;5018050;28;20693;-52
2022/10/06 11:05:55;;;;;;;1.93;0.80;;;16.70;99.90;;;;;;5014486;28;21371;-52
2022/10/06 11:08:41;;;;;;;3.20;1.00;;;16.90;99.90;;;;;;5016873;28;20690;-52
2022/10/06 11:11:19;;;;;;;4.33;1.10;;;17.00;99.90;;;;;;5014716;28;20307;-52
2022/10/06 11:13:51;;;;;;;5.70;1.30;;;16.70;99.90;;;;;;5019269;28;20226;-51
2022/10/06 11:16:30;;;;;;;7.07;1.37;;;16.50;99.90;;;;;;5019822;28;20206;-52
2022/10/06 11:19:16;;;;;;;4.47;0.97;;;16.40;99.90;;;;;;5013295;28;20208;-52
2022/10/06 11:21:53;;;;;;;9.87;1.40;;;16.40;99.90;;;;;;5013657;28;20669;-52
2022/10/06 11:24:30;;;;;;;5.70;1.10;;;16.60;99.90;;;;;;5013112;28;20197;-52
2022/10/06 11:27:27;;;;;;;4.13;1.17;;;16.60;99.90;;;;;;5013634;28;20198;-52
2022/10/06 11:30:14;;;;;;;6.03;1.20;;;16.90;99.90;;;;;;5011037;28;20205;-52
2022/10/06 11:32:55;;;;;;;5.33;1.10;;;17.20;99.90;;;;;;5018965;28;20318;-52
2022/10/06 11:35:25;;;;;;;6.50;1.23;;;17.60;99.90;;;;;;5012908;28;20213;-52
2022/10/06 11:38:01;;;;;;;4.07;0.70;;;17.40;99.90;;;;;;5015954;28;20722;-52
2022/10/06 11:40:31;;;;;;;6.00;1.60;;;17.60;84.50;;;;;;5012962;28;20200;-51
2022/10/06 11:43:03;;;;;;;5.37;1.20;;;17.40;24.70;;;;;;5015407;28;20232;-52
2022/10/06 11:46:03;;;;;;;6.17;1.20;;;17.20;1.00;;;;;;5014845;28;20202;-52
2022/10/06 11:48:31;;;;;;;2.93;0.87;;;17.30;29.10;;;;;;5015483;28;20581;-52
2022/10/06 11:51:24;;;;;;;3.80;0.60;;;17.70;1.00;;;;;;5017249;28;20204;-53
2022/10/06 11:53:52;;;;;;;5.67;1.00;;;18.10;1.00;;;;;;5014385;28;22169;-53
2022/10/06 11:56:18;;;;;;;3.00;0.83;;;18.40;1.00;;;;;;5016063;28;20204;-53
2022/10/06 11:58:51;;;;;;;4.97;0.83;;;18.30;1.00;;;;;;5010909;28;20214;-54
2022/10/06 12:01:29;;;;;;;4.00;0.97;;;18.60;1.00;;;;;;5015262;28;20239;-53
2022/10/06 12:04:17;;;;;;;9.33;0.93;;;18.70;1.00;;;;;;5025085;28;20202;-53
2022/10/06 12:06:51;;;;;;;5.33;0.90;;;19.10;1.00;;;;;;5013503;28;20209;-52
2022/10/06 12:09:37;;;;;;;5.13;0.77;;;19.40;1.00;;;;;;5010367;28;20201;-53
2022/10/06 12:12:19;;;;;;;5.60;1.00;;;19.70;1.00;;;;;;5014410;28;20192;-53
2022/10/06 12:15:11;;;;;;;4.83;0.90;;;19.80;1.00;;;;;;5013259;28;20207;-52
2022/10/06 12:18:24;;;;;;;3.13;0.80;;;19.80;1.00;;;;;;5016356;28;20200;-54
2022/10/06 12:21:22;;;;;;;4.30;1.10;;;19.60;1.00;;;;;;5007861;28;20813;-53
2022/10/06 12:24:01;;;;;;;5.60;1.00;;;19.80;1.00;;;;;;5009481;28;20220;-53
2022/10/06 12:26:52;;;;;;;7.17;1.50;;;19.40;1.00;;;;;;5028614;28;20285;-52
2022/10/06 12:29:37;;;;;;;5.47;0.90;;;19.40;1.00;;;;;;5014615;28;20675;-53
2022/10/06 12:32:35;;;;;;;6.10;1.20;;;19.80;1.00;;;;;;5011816;28;20214;-53
2022/10/06 12:35:14;;;;;;;1.33;0.80;;;20.20;1.00;;;;;;5009493;28;20209;-52
2022/10/06 12:37:45;;;;;;;4.30;1.00;;;19.60;1.00;;;;;;5013702;28;20202;-52
2022/10/06 12:40:37;;;;;;;4.37;0.97;;;19.80;1.00;;;;;;5014372;28;20729;-52
2022/10/06 12:43:13;;;;;;;6.10;1.00;;;19.60;1.00;;;;;;5007688;28;20207;-53
2022/10/06 12:45:45;;;;;;;3.50;0.90;;;19.60;1.00;;;;;;5011719;28;20200;-52
2022/10/06 12:48:30;;;;;;;6.77;1.10;;;20.00;1.00;;;;;;5011138;28;20577;-53
2022/10/06 12:51:04;;;;;;;3.77;0.60;;;19.90;1.00;;;;;;5006030;28;20208;-51
2022/10/06 12:53:44;;;;;;;3.70;0.87;;;19.80;1.00;;;;;;5014012;28;20214;-52
2022/10/06 12:56:27;;;;;;;1.97;1.07;;;19.70;1.00;;;;;;5010356;28;20204;-52
2022/10/06 12:58:54;;;;;;;4.07;0.90;;;20.00;1.00;;;;;;5011454;28;20645;-52
2022/10/06 13:01:22;;;;;;;4.97;0.80;;;19.90;1.00;;;;;;5012182;28;20323;-52
2022/10/06 13:03:50;;;;;;;1.73;0.80;;;19.30;1.00;;;;;;5011837;28;20302;-52
2022/10/06 13:06:23;;;;;;;7.30;0.97;;;19.90;1.00;;;;;;5011267;28;20203;-54
2022/10/06 13:09:22;;;;;;;5.50;1.03;;;19.90;1.00;;;;;;5011357;28;20207;-53
2022/10/06 13:11:48;;;;;;;4.17;0.70;;;19.00;1.00;;;;;;5022894;28;20214;-51
2022/10/06 13:14:15;;;;;;;3.10;1.00;;;18.90;1.00;;;;;;5009985;28;20706;-53
2022/10/06 13:16:45;;;;;;;4.43;1.00;;;19.10;1.00;;;;;;5013720;28;20206;-51
2022/10/06 13:19:20;;;;;;;3.73;1.00;;;19.10;1.00;;;;;;5013148;28;20256;-52
2022/10/06 13:21:47;;;;;;;4.93;1.00;;;19.30;1.00;;;;;;5009650;28;20210;-51
2022/10/06 13:24:20;;;;;;;4.23;1.20;;;19.40;1.00;;;;;;5009505;28;20225;-54
2022/10/06 13:26:47;;;;;;;6.30;0.90;;;19.30;1.00;;;;;;5014181;28;20203;-51
2022/10/06 13:29:16;;;;;;;4.90;0.80;;;18.80;1.00;;;;;;5009184;28;20298;-52